Time;durP1;ratioP1;P1;durP2;ratioP2;P2;SDS_P1;SDS_P2;PMS_P1;PMS_P2;Temp;Humidity;BMP_temperature;BMP_pressure;BME280_temperature;BME280_humidity;BME280_pressure;Samples;Min_cycle;Max_cycle;Signal;HPM_P1;HPM_P2
2023/05/26 00:01:46;;;;;;;;;;;;;;;-144.99;88.89;52395.09;5050596;28;20378;-71
2023/05/26 00:04:16;;;;;;;;;;;;;;;-144.99;88.97;52374.72;5048579;28;19939;-71
2023/05/26 00:06:43;;;;;;;;;;;;;;;-144.99;88.95;52386.94;5045526;28;20027;-69
2023/05/26 00:09:10;;;;;;;;;;;;;;;-144.99;89.00;52370.63;5052313;28;20075;-68
2023/05/26 00:11:38;;;;;;;;;;;;;;;-144.99;89.05;52378.78;5052454;28;19995;-69
2023/05/26 00:14:05;;;;;;;;;;;;;;;-144.99;89.00;52374.72;5051447;28;19929;-69
2023/05/26 00:16:32;;;;;;;;;;;;;;;-144.99;88.96;52386.94;5053019;28;19940;-68
2023/05/26 00:18:58;;;;;;;;;;;;;;;-144.99;89.35;52370.63;5047713;28;19932;-70
2023/05/26 00:21:26;;;;;;;;;;;;;;;-144.99;89.70;52399.19;5046793;28;19935;-68
2023/05/26 00:23:52;;;;;;;;;;;;;;;-144.99;89.92;52368.59;5049978;28;19972;-69
2023/05/26 00:26:20;;;;;;;;;;;;;;;-144.99;89.86;52415.47;5053249;28;19932;-69
2023/05/26 00:28:48;;;;;;;;;;;;;;;-144.99;89.56;52407.31;5048895;28;19983;-69
2023/05/26 00:31:15;;;;;;;;;;;;;;;-144.99;89.98;52413.44;5052899;28;20281;-69
2023/05/26 00:33:42;;;;;;;;;;;;;;;-144.99;89.17;52378.78;5053654;28;20027;-69
2023/05/26 00:36:08;;;;;;;;;;;;;;;-144.99;89.52;52399.19;5052090;28;19935;-69
2023/05/26 00:38:35;;;;;;;;;;;;;;;-144.99;89.82;52374.72;5051415;28;20047;-67
2023/05/26 00:41:02;;;;;;;;;;;;;;;-144.99;89.90;52391.03;5051337;28;20381;-69
2023/05/26 00:43:29;;;;;;;;;;;;;;;-144.99;89.82;52397.13;5051840;28;20083;-70
2023/05/26 00:45:57;;;;;;;;;;;;;;;-144.99;90.04;52403.25;5046185;28;19929;-69
2023/05/26 00:48:24;;;;;;;;;;;;;;;-144.99;89.72;52399.19;5049027;28;19932;-69
2023/05/26 00:50:51;;;;;;;;;;;;;;;-144.99;89.83;52419.56;5053208;28;19939;-70
2023/05/26 00:53:17;;;;;;;;;;;;;;;-144.99;90.36;52364.53;5054265;28;19933;-70
2023/05/26 00:55:45;;;;;;;;;;;;;;;-144.99;90.77;52370.63;5052819;28;20389;-69
2023/05/26 00:58:12;;;;;;;;;;;;;;;-144.99;90.40;52393.06;5052353;28;19999;-70
2023/05/26 01:00:39;;;;;;;;;;;;;;;-144.99;90.61;52374.72;5049469;28;19928;-70
2023/05/26 01:03:07;;;;;;;;;;;;;;;-144.99;90.39;52350.25;5048763;28;19929;-70
2023/05/26 01:05:34;;;;;;;;;;;;;;;-144.99;90.34;52395.09;5053347;28;19924;-70
2023/05/26 01:08:02;;;;;;;;;;;;;;;-144.99;90.29;52388.97;5050772;28;20119;-68
2023/05/26 01:10:31;;;;;;;;;;;;;;;-144.99;90.30;52382.88;5046394;28;19933;-73
2023/05/26 01:12:59;;;;;;;;;;;;;;;-144.99;90.52;52362.50;5047287;28;20459;-72
2023/05/26 01:15:30;;;;;;;;;;;;;;;-144.99;90.83;52403.25;5053592;28;20015;-71
2023/05/26 01:17:58;;;;;;;;;;;;;;;-144.99;90.32;52386.94;5049776;28;19929;-69
2023/05/26 01:20:30;;;;;;;;;;;;;;;-144.99;90.45;52346.19;5052777;28;20141;-69
2023/05/26 01:23:19;;;;;;;;;;;;;;;-144.99;90.53;52372.69;5051829;28;20019;-68
2023/05/26 01:25:56;;;;;;;;;;;;;;;-144.99;90.63;52382.88;5050881;28;19932;-70
2023/05/26 01:28:27;;;;;;;;;;;;;;;-144.99;90.70;52386.94;5058579;28;20476;-71
2023/05/26 01:30:54;;;;;;;;;;;;;;;-144.99;90.72;52395.09;5062710;28;19939;-72
2023/05/26 01:33:21;;;;;;;;;;;;;;;-144.99;89.88;52378.78;5061270;28;19933;-72
2023/05/26 01:35:47;;;;;;;;;;;;;;;-144.99;89.80;52374.72;5058871;28;19925;-71
2023/05/26 01:38:14;;;;;;;;;;;;;;;-144.99;89.71;52386.94;5051905;28;19960;-71
2023/05/26 01:40:42;;;;;;;;;;;;;;;-144.99;89.50;52366.56;5044788;28;19936;-71
2023/05/26 01:43:12;;;;;;;;;;;;;;;-144.99;90.32;52415.47;5045334;28;19929;-71
2023/05/26 01:45:44;;;;;;;;;;;;;;;-144.99;90.57;52397.13;5044842;28;20300;-72
2023/05/26 01:48:12;;;;;;;;;;;;;;;-144.99;89.93;52399.19;5044016;28;19994;-71
2023/05/26 01:50:41;;;;;;;;;;;;;;;-144.99;89.87;52380.84;5051142;28;20385;-70
2023/05/26 01:53:12;;;;;;;;;;;;;;;-144.99;89.71;52407.31;5051890;28;19925;-70
2023/05/26 01:55:39;;;;;;;;;;;;;;;-144.99;89.80;52368.59;5051391;28;19931;-70
2023/05/26 01:58:06;;;;;;;;;;;;;;;-144.99;89.72;52376.75;5050576;28;19935;-70
2023/05/26 02:00:33;;;;;;;;;;;;;;;-144.99;89.74;52372.69;5047783;28;19951;-70
2023/05/26 02:03:01;;;;;;;;;;;;;;;-144.99;89.72;52399.19;5051395;28;20285;-70
2023/05/26 02:05:27;;;;;;;;;;;;;;;-144.99;89.64;52378.78;5050355;28;20322;-70
2023/05/26 02:07:54;;;;;;;;;;;;;;;-144.99;89.87;52382.88;5049093;28;20062;-69
2023/05/26 02:10:21;;;;;;;;;;;;;;;-144.99;89.90;52423.63;5051835;28;20221;-69
2023/05/26 02:12:47;;;;;;;;;;;;;;;-144.99;90.08;52372.69;5052000;28;19925;-69
2023/05/26 02:15:17;;;;;;;;;;;;;;;-144.99;90.00;52384.91;5051132;28;19925;-72
2023/05/26 02:17:44;;;;;;;;;;;;;;;-144.99;90.28;52382.88;5051375;28;20123;-71
2023/05/26 02:20:12;;;;;;;;;;;;;;;-144.99;90.07;52358.41;5048279;28;19968;-72
2023/05/26 02:22:39;;;;;;;;;;;;;;;-144.99;90.31;52403.25;5051367;28;20008;-73
2023/05/26 02:25:06;;;;;;;;;;;;;;;-144.99;90.58;52403.25;5042382;28;19929;-71
2023/05/26 02:27:32;;;;;;;;;;;;;;;-144.99;90.41;52372.69;5045393;28;20254;-70
2023/05/26 02:30:00;;;;;;;;;;;;;;;-144.99;90.39;52374.72;5043524;28;19964;-71
2023/05/26 02:32:29;;;;;;;;;;;;;;;-144.99;90.58;52374.72;5045841;28;19947;-71
2023/05/26 02:34:56;;;;;;;;;;;;;;;-144.99;90.55;52391.03;5044521;28;19994;-72
2023/05/26 02:37:26;;;;;;;;;;;;;;;-144.99;90.67;52431.78;5051471;28;19968;-71
2023/05/26 02:39:53;;;;;;;;;;;;;;;-144.99;90.84;52358.41;5049187;28;19982;-71
2023/05/26 02:42:19;;;;;;;;;;;;;;;-144.99;90.78;52370.63;5051271;28;19991;-71
2023/05/26 02:44:46;;;;;;;;;;;;;;;-144.99;91.14;52384.91;5044790;28;19936;-74
2023/05/26 02:47:13;;;;;;;;;;;;;;;-144.99;91.32;52417.53;5048313;28;20025;-72
2023/05/26 02:49:40;;;;;;;;;;;;;;;-144.99;91.60;52358.41;5043925;28;20003;-72
2023/05/26 02:52:07;;;;;;;;;;;;;;;-144.99;91.80;52370.63;5047964;28;19925;-72
2023/05/26 02:54:35;;;;;;;;;;;;;;;-144.99;91.96;52374.72;5045786;28;19925;-72
2023/05/26 02:57:01;;;;;;;;;;;;;;;-144.99;92.44;52444.03;5049012;28;19936;-73
2023/05/26 02:59:28;;;;;;;;;;;;;;;-144.99;93.15;52403.25;5047715;28;19929;-73
2023/05/26 03:01:55;;;;;;;;;;;;;;;-144.99;93.28;52372.69;5040215;28;20023;-69
2023/05/26 03:04:22;;;;;;;;;;;;;;;-144.99;92.94;52346.19;5035156;28;19932;-70
2023/05/26 03:06:48;;;;;;;;;;;;;;;-144.99;93.45;52378.78;5043799;28;20909;-69
2023/05/26 03:09:15;;;;;;;;;;;;;;;-144.99;93.58;52395.09;5046270;28;19976;-69
2023/05/26 03:11:43;;;;;;;;;;;;;;;-144.99;93.39;52382.88;5050572;28;19964;-70
2023/05/26 03:14:10;;;;;;;;;;;;;;;-144.99;94.07;52411.41;5046830;28;19940;-69
2023/05/26 03:16:39;;;;;;;;;;;;;;;-144.99;93.38;52403.25;5048740;28;20219;-70
2023/05/26 03:19:05;;;;;;;;;;;;;;;-144.99;93.56;52399.19;5048252;28;20016;-70
2023/05/26 03:21:32;;;;;;;;;;;;;;;-144.99;94.11;52444.03;5042947;28;19929;-69
2023/05/26 03:23:59;;;;;;;;;;;;;;;-144.99;94.02;52423.63;5051639;28;20305;-69
2023/05/26 03:26:25;;;;;;;;;;;;;;;-144.99;94.53;52370.63;5052621;28;19929;-70
2023/05/26 03:28:54;;;;;;;;;;;;;;;-144.99;93.58;52374.72;5053079;28;20044;-69
2023/05/26 03:31:21;;;;;;;;;;;;;;;-144.99;94.28;52399.19;5055363;28;20008;-69
2023/05/26 03:33:48;;;;;;;;;;;;;;;-144.99;93.83;52433.81;5055938;28;19960;-70
2023/05/26 03:36:15;;;;;;;;;;;;;;;-144.99;93.95;52395.09;5051394;28;20406;-70
2023/05/26 03:38:42;;;;;;;;;;;;;;;-144.99;94.06;52386.94;5053509;28;19928;-70
2023/05/26 03:41:09;;;;;;;;;;;;;;;-144.99;94.06;52395.09;5055175;28;19931;-69
2023/05/26 03:43:35;;;;;;;;;;;;;;;-144.99;94.16;52374.72;5053943;28;19925;-69
2023/05/26 03:46:04;;;;;;;;;;;;;;;-144.99;94.17;52391.03;5047728;28;19928;-70
2023/05/26 03:48:30;;;;;;;;;;;;;;;-144.99;95.01;52362.50;5051950;28;20301;-69
2023/05/26 03:50:57;;;;;;;;;;;;;;;-144.99;94.71;52388.97;5047778;28;19929;-69
2023/05/26 03:53:24;;;;;;;;;;;;;;;-144.99;94.87;52382.88;5052279;28;19936;-67
2023/05/26 03:55:51;;;;;;;;;;;;;;;-144.99;94.89;52391.03;5055726;28;19925;-70
2023/05/26 03:58:18;;;;;;;;;;;;;;;-144.99;95.23;52366.56;5049542;28;19929;-71
2023/05/26 04:00:46;;;;;;;;;;;;;;;-144.99;95.39;52413.44;5054465;28;19932;-72
2023/05/26 04:03:14;;;;;;;;;;;;;;;-144.99;95.42;52366.56;5052738;28;19939;-72
2023/05/26 04:05:41;;;;;;;;;;;;;;;-144.99;95.63;52397.13;5051099;28;20401;-72
2023/05/26 04:08:07;;;;;;;;;;;;;;;-144.99;95.75;52407.31;5045425;28;20436;-72
2023/05/26 04:10:34;;;;;;;;;;;;;;;-144.99;95.75;52354.34;5052002;28;19924;-69
2023/05/26 04:13:01;;;;;;;;;;;;;;;-144.99;95.48;52382.88;5053859;28;19925;-68
2023/05/26 04:15:27;;;;;;;;;;;;;;;-144.99;95.18;52391.03;5054023;28;19933;-68
2023/05/26 04:17:54;;;;;;;;;;;;;;;-144.99;95.04;52384.91;5050691;28;20023;-68
2023/05/26 04:20:22;;;;;;;;;;;;;;;-144.99;95.14;52382.88;5053746;28;19932;-66
2023/05/26 04:22:49;;;;;;;;;;;;;;;-144.99;95.14;52399.19;5049757;28;20417;-67
2023/05/26 04:25:16;;;;;;;;;;;;;;;-144.99;95.11;52362.50;5049739;28;20316;-68
2023/05/26 04:27:43;;;;;;;;;;;;;;;-144.99;94.88;52364.53;5043055;28;19928;-70
2023/05/26 04:30:10;;;;;;;;;;;;;;;-144.99;95.11;52362.50;5050102;28;19931;-70
2023/05/26 04:32:37;;;;;;;;;;;;;;;-144.99;95.22;52354.34;5051727;28;19925;-69
2023/05/26 04:35:04;;;;;;;;;;;;;;;-144.99;95.44;52395.09;5048864;28;19924;-69
2023/05/26 04:37:33;;;;;;;;;;;;;;;-144.99;95.11;52354.34;5049072;28;19925;-71
2023/05/26 04:40:00;;;;;;;;;;;;;;;-144.99;95.21;52382.88;5044609;28;20015;-70
2023/05/26 04:42:27;;;;;;;;;;;;;;;-144.99;95.35;52352.28;5052174;28;19928;-69
2023/05/26 04:44:54;;;;;;;;;;;;;;;-144.99;95.39;52411.41;5049665;28;19925;-69
2023/05/26 04:47:22;;;;;;;;;;;;;;;-144.99;95.43;52382.88;5048045;28;19925;-69
2023/05/26 04:49:48;;;;;;;;;;;;;;;-144.99;95.03;52354.34;5052756;28;20385;-69
2023/05/26 04:52:15;;;;;;;;;;;;;;;-144.99;95.31;52338.03;5046511;28;19932;-69
2023/05/26 04:54:43;;;;;;;;;;;;;;;-144.99;95.11;52327.84;5048663;28;19935;-69
2023/05/26 04:57:10;;;;;;;;;;;;;;;-144.99;94.45;52374.72;5051114;28;19932;-68
2023/05/26 04:59:38;;;;;;;;;;;;;;;-144.99;94.06;52370.63;5052080;28;19952;-68
2023/05/26 05:02:05;;;;;;;;;;;;;;;-144.99;93.95;52333.94;5054146;28;19924;-69
2023/05/26 05:04:34;;;;;;;;;;;;;;;-144.99;94.51;52356.38;5049394;28;19925;-68
2023/05/26 05:07:01;;;;;;;;;;;;;;;-144.99;94.51;52386.94;5052375;28;19924;-69
2023/05/26 05:09:28;;;;;;;;;;;;;;;-144.99;94.25;52346.19;5041077;28;19932;-69
2023/05/26 05:11:56;;;;;;;;;;;;;;;-144.99;93.91;52366.56;5052395;28;19931;-69
2023/05/26 05:14:23;;;;;;;;;;;;;;;-144.99;93.28;52329.88;5049719;28;19937;-72
2023/05/26 05:16:50;;;;;;;;;;;;;;;-144.99;92.17;52336.00;5045061;28;19929;-73
2023/05/26 05:19:18;;;;;;;;;;;;;;;-144.99;91.58;52374.72;4345646;28;10000873;-72
2023/05/26 05:21:45;;;;;;;;;;;;;;;-144.99;91.25;52338.03;5048882;28;19939;-72
2023/05/26 05:24:11;;;;;;;;;;;;;;;-144.99;90.54;52305.41;5048713;28;20023;-72
2023/05/26 05:26:39;;;;;;;;;;;;;;;-144.99;89.90;52301.34;4980042;28;1923383;-72
2023/05/26 05:29:08;;;;;;;;;;;;;;;-144.99;89.92;52317.66;5048033;28;20030;-72
2023/05/26 05:31:35;;;;;;;;;;;;;;;-144.99;89.07;52354.34;5048789;28;19933;-72
2023/05/26 05:34:01;;;;;;;;;;;;;;;-144.99;88.65;52309.50;5050858;28;19924;-72
2023/05/26 05:36:29;;;;;;;;;;;;;;;-144.99;88.51;52321.72;5051181;28;19935;-73
2023/05/26 05:38:56;;;;;;;;;;;;;;;-144.99;87.99;52325.81;5053098;28;19932;-72
2023/05/26 05:41:23;;;;;;;;;;;;;;;-144.99;87.95;52329.88;5042836;28;19940;-73
2023/05/26 05:43:50;;;;;;;;;;;;;;;-144.99;87.53;52325.81;5040409;28;19984;-72
2023/05/26 05:46:18;;;;;;;;;;;;;;;-144.99;87.46;52317.66;5041875;28;19964;-76
2023/05/26 05:48:45;;;;;;;;;;;;;;;-144.99;87.17;52329.88;5043137;28;20304;-72
2023/05/26 05:51:12;;;;;;;;;;;;;;;-144.99;86.78;52329.88;5048473;28;21020;-72
2023/05/26 05:53:39;;;;;;;;;;;;;;;-144.99;86.58;52317.66;5048663;28;20313;-73
2023/05/26 05:56:06;;;;;;;;;;;;;;;-144.99;86.25;52327.84;5043827;28;19929;-72
2023/05/26 05:58:33;;;;;;;;;;;;;;;-144.99;85.95;52325.81;5045525;28;19932;-73
2023/05/26 06:00:59;;;;;;;;;;;;;;;-144.99;85.03;52338.03;5047252;28;19925;-72
2023/05/26 06:03:27;;;;;;;;;;;;;;;-144.99;84.91;52338.03;5048660;28;20447;-72
2023/05/26 06:05:54;;;;;;;;;;;;;;;-144.99;84.60;52352.28;5048387;28;20297;-72
2023/05/26 06:08:21;;;;;;;;;;;;;;;-144.99;84.35;52313.56;5045272;28;19933;-72
2023/05/26 06:10:48;;;;;;;;;;;;;;;-144.99;84.20;52313.56;5044828;28;20025;-73
2023/05/26 06:13:15;;;;;;;;;;;;;;;-144.99;83.03;52309.50;5044258;28;19936;-72
2023/05/26 06:15:42;;;;;;;;;;;;;;;-144.99;83.15;52325.81;5050181;28;20317;-72
2023/05/26 06:18:08;;;;;;;;;;;;;;;-144.99;82.25;52325.81;5046151;28;19932;-72
2023/05/26 06:20:36;;;;;;;;;;;;;;;-144.99;81.25;52329.88;5052726;28;19988;-73
2023/05/26 06:23:03;;;;;;;;;;;;;;;-144.99;80.98;52289.13;5050337;28;20317;-73
2023/05/26 06:25:30;;;;;;;;;;;;;;;-144.99;79.46;52276.88;5048073;28;20020;-72
2023/05/26 06:27:57;;;;;;;;;;;;;;;-144.99;79.27;52338.03;5046716;28;20003;-72
2023/05/26 06:30:24;;;;;;;;;;;;;;;-144.99;78.66;52305.41;5048200;28;19928;-72
2023/05/26 06:32:50;;;;;;;;;;;;;;;-144.99;78.81;52344.16;5047791;28;20371;-72
2023/05/26 06:35:17;;;;;;;;;;;;;;;-144.99;78.10;52293.19;5042620;28;20501;-72
2023/05/26 06:37:45;;;;;;;;;;;;;;;-144.99;78.08;52293.19;5045659;28;19982;-73
2023/05/26 06:40:13;;;;;;;;;;;;;;;-144.99;77.91;52293.19;5044746;28;19933;-73
2023/05/26 06:42:39;;;;;;;;;;;;;;;-144.99;77.48;52301.34;5046957;28;20310;-73
2023/05/26 06:45:06;;;;;;;;;;;;;;;-144.99;77.02;52293.19;5034041;28;20060;-73
2023/05/26 06:47:33;;;;;;;;;;;;;;;-144.99;75.85;52305.41;5043082;28;19928;-75
2023/05/26 06:50:00;;;;;;;;;;;;;;;-144.99;75.36;52287.06;5046654;28;19999;-72
2023/05/26 06:52:27;;;;;;;;;;;;;;;-144.99;75.29;52297.25;5041641;28;20344;-72
2023/05/26 06:54:55;;;;;;;;;;;;;;;-144.99;75.47;52283.00;5044092;28;19968;-73
2023/05/26 06:57:22;;;;;;;;;;;;;;;-144.99;75.57;52285.03;5045385;28;19929;-73
2023/05/26 06:59:48;;;;;;;;;;;;;;;-144.99;75.72;52307.47;5050727;28;19951;-71
2023/05/26 07:02:15;;;;;;;;;;;;;;;-144.99;75.33;52301.34;5049312;28;19936;-72
2023/05/26 07:04:43;;;;;;;;;;;;;;;-144.99;75.17;52323.75;5050744;28;19932;-72
2023/05/26 07:07:10;;;;;;;;;;;;;;;-144.99;75.08;52329.88;5049157;28;19929;-73
2023/05/26 07:09:37;;;;;;;;;;;;;;;-144.99;74.50;52264.66;5045580;28;19955;-71
2023/05/26 07:12:06;;;;;;;;;;;;;;;-144.99;73.73;52266.69;5051201;28;20410;-71
2023/05/26 07:14:33;;;;;;;;;;;;;;;-144.99;74.48;52287.06;5050951;28;19945;-72
2023/05/26 07:16:59;;;;;;;;;;;;;;;-144.99;73.88;52256.50;5048983;28;19929;-72
2023/05/26 07:19:26;;;;;;;;;;;;;;;-144.99;73.52;52364.53;5050867;28;20404;-73
2023/05/26 07:21:53;;;;;;;;;;;;;;;-144.99;73.42;52276.88;5052154;28;19939;-73
2023/05/26 07:24:19;;;;;;;;;;;;;;;-144.99;72.32;52276.88;5052235;28;19935;-72
2023/05/26 07:26:46;;;;;;;;;;;;;;;-144.99;72.38;52260.56;5051347;28;19941;-72
2023/05/26 07:29:14;;;;;;;;;;;;;;;-144.99;72.58;52276.88;5049993;28;19933;-71
2023/05/26 07:31:41;;;;;;;;;;;;;;;-144.99;72.00;52268.72;5047782;28;19932;-72
2023/05/26 07:34:08;;;;;;;;;;;;;;;-144.99;72.17;52276.88;5046277;28;20127;-72
2023/05/26 07:36:35;;;;;;;;;;;;;;;-144.99;71.81;52295.22;5042907;28;19936;-72
2023/05/26 07:39:02;;;;;;;;;;;;;;;-144.99;70.97;52260.56;5044451;28;20296;-72
2023/05/26 07:41:28;;;;;;;;;;;;;;;-144.99;71.03;52276.88;5049675;28;19932;-73
2023/05/26 07:43:55;;;;;;;;;;;;;;;-144.99;71.10;52276.88;5049211;28;19928;-72
2023/05/26 07:46:23;;;;;;;;;;;;;;;-144.99;70.85;52223.88;5051237;28;20147;-70
2023/05/26 07:48:50;;;;;;;;;;;;;;;-144.99;70.28;52244.28;5051193;28;20039;-72
2023/05/26 07:51:17;;;;;;;;;;;;;;;-144.99;70.14;52252.44;5042899;28;20019;-73
2023/05/26 07:53:43;;;;;;;;;;;;;;;-144.99;69.55;52256.50;5047173;28;20348;-72
2023/05/26 07:56:10;;;;;;;;;;;;;;;-144.99;69.55;52260.56;5051186;28;19929;-72
2023/05/26 07:58:38;;;;;;;;;;;;;;;-144.99;69.16;52268.72;5051426;28;19929;-73
2023/05/26 08:01:06;;;;;;;;;;;;;;;-144.99;68.48;52270.78;5049956;28;19932;-72
2023/05/26 08:03:34;;;;;;;;;;;;;;;-144.99;69.24;52252.44;5048424;28;19928;-73
2023/05/26 08:06:01;;;;;;;;;;;;;;;-144.99;68.83;52244.28;5047064;28;19929;-74
2023/05/26 08:08:28;;;;;;;;;;;;;;;-144.99;68.55;52215.75;5046798;28;19924;-72
2023/05/26 08:10:54;;;;;;;;;;;;;;;-144.99;68.75;52268.72;5046478;28;19929;-73
2023/05/26 08:13:21;;;;;;;;;;;;;;;-144.99;69.34;52258.53;5048253;28;19976;-73
2023/05/26 08:15:48;;;;;;;;;;;;;;;-144.99;69.31;52280.97;5045900;28;20019;-70
2023/05/26 08:18:15;;;;;;;;;;;;;;;-144.99;69.19;52268.72;5047444;28;19925;-72
2023/05/26 08:20:43;;;;;;;;;;;;;;;-144.99;68.93;52280.97;5045060;28;19968;-72
2023/05/26 08:23:09;;;;;;;;;;;;;;;-144.99;68.39;52264.66;5046772;28;20471;-72
2023/05/26 08:25:36;;;;;;;;;;;;;;;-144.99;68.52;52209.63;5045194;28;19928;-72
2023/05/26 08:28:03;;;;;;;;;;;;;;;-144.99;67.84;52219.81;5046091;28;19924;-72
2023/05/26 08:30:29;;;;;;;;;;;;;;;-144.99;67.57;52221.84;5046900;28;19928;-73
2023/05/26 08:32:56;;;;;;;;;;;;;;;-144.99;67.18;52236.13;5047444;28;19935;-72
2023/05/26 08:35:23;;;;;;;;;;;;;;;-144.99;66.60;52215.75;5044340;28;19940;-73
2023/05/26 08:37:51;;;;;;;;;;;;;;;-144.99;66.47;52197.41;5048638;28;19935;-73
2023/05/26 08:40:18;;;;;;;;;;;;;;;-144.99;65.98;52225.94;5063220;22;19928;-66
2023/05/26 08:42:45;;;;;;;;;;;;;;;-144.99;65.63;52252.44;5067003;28;20090;-67
2023/05/26 08:45:12;;;;;;;;;;;;;;;-144.99;65.62;52232.03;5066632;28;19932;-66
2023/05/26 08:47:41;;;;;;;;;;;;;;;-144.99;65.62;52201.47;5065769;28;19935;-67
2023/05/26 08:50:09;;;;;;;;;;;;;;;-144.99;65.34;52225.94;5061547;28;19936;-67
2023/05/26 08:52:36;;;;;;;;;;;;;;;-144.99;65.64;52223.88;5066142;28;19940;-67
2023/05/26 08:55:05;;;;;;;;;;;;;;;-144.99;65.95;52240.19;5066683;28;19928;-67
2023/05/26 08:57:31;;;;;;;;;;;;;;;-144.99;65.65;52236.13;5061671;28;19989;-66
2023/05/26 08:59:58;;;;;;;;;;;;;;;-144.99;65.59;52225.94;5065242;28;19928;-67
2023/05/26 09:02:25;;;;;;;;;;;;;;;-144.99;64.95;52219.81;5065892;28;19928;-67
2023/05/26 09:04:52;;;;;;;;;;;;;;;-144.99;65.75;52217.78;5066491;28;19954;-66
2023/05/26 09:07:19;;;;;;;;;;;;;;;-144.99;65.93;52227.97;5058852;28;20381;-66
2023/05/26 09:09:46;;;;;;;;;;;;;;;-144.99;66.16;52285.03;5063322;28;19924;-68
2023/05/26 09:12:14;;;;;;;;;;;;;;;-144.99;66.35;52223.88;5067132;28;19932;-67
2023/05/26 09:14:42;;;;;;;;;;;;;;;-144.99;65.54;52215.75;5066207;28;19928;-67
2023/05/26 09:17:11;;;;;;;;;;;;;;;-144.99;65.50;52236.13;5066429;28;20384;-67
2023/05/26 09:19:38;;;;;;;;;;;;;;;-144.99;64.78;52215.75;5064778;28;19932;-67
2023/05/26 09:22:08;;;;;;;;;;;;;;;-144.99;64.67;52215.75;5064856;28;20377;-67
2023/05/26 09:24:45;;;;;;;;;;;;;;;-144.99;64.31;52250.38;5066794;28;20045;-67
2023/05/26 09:27:20;;;;;;;;;;;;;;;-144.99;63.91;52177.00;5066304;28;20342;-67
2023/05/26 09:29:51;;;;;;;;;;;;;;;-144.99;63.24;52197.41;5061932;28;19929;-66
2023/05/26 09:32:18;;;;;;;;;;;;;;;-144.99;63.44;52195.34;5058266;28;19928;-67
2023/05/26 09:34:44;;;;;;;;;;;;;;;-144.99;62.46;52195.34;5063118;28;19943;-66
2023/05/26 09:37:11;;;;;;;;;;;;;;;-144.99;62.51;52177.00;5064843;28;20300;-67
2023/05/26 09:39:38;;;;;;;;;;;;;;;-144.99;62.98;52191.28;5057398;28;19929;-67
2023/05/26 09:42:06;;;;;;;;;;;;;;;-144.99;62.80;52187.19;5062053;28;20373;-67
2023/05/26 09:44:34;;;;;;;;;;;;;;;-144.99;63.17;52187.19;5066132;28;19932;-67
2023/05/26 09:47:01;;;;;;;;;;;;;;;-144.99;63.26;52215.75;5065487;28;20392;-67
2023/05/26 09:49:27;;;;;;;;;;;;;;;-144.99;62.96;52197.41;5065969;28;19924;-67
2023/05/26 09:51:54;;;;;;;;;;;;;;;-144.99;62.67;52170.91;5063579;28;20301;-67
2023/05/26 09:54:21;;;;;;;;;;;;;;;-144.99;62.72;52162.75;5062205;28;19978;-67
2023/05/26 09:56:52;;;;;;;;;;;;;;;-144.99;62.47;52193.31;5065357;28;19924;-67
2023/05/26 09:59:19;;;;;;;;;;;;;;;-144.99;62.58;52187.19;5057446;28;20274;-67
2023/05/26 10:01:48;;;;;;;;;;;;;;;-144.99;62.55;52203.50;5061234;28;19956;-68
2023/05/26 10:04:16;;;;;;;;;;;;;;;-144.99;62.56;52166.81;5066032;28;19924;-67
2023/05/26 10:06:42;;;;;;;;;;;;;;;-144.99;62.79;52187.19;5065489;28;20307;-66
2023/05/26 10:09:10;;;;;;;;;;;;;;;-144.99;63.06;52207.59;5060771;28;20028;-67
2023/05/26 10:11:40;;;;;;;;;;;;;;;-144.99;63.42;52207.59;5064546;28;20385;-66
2023/05/26 10:14:07;;;;;;;;;;;;;;;-144.99;63.79;52240.19;5065456;28;19928;-66
2023/05/26 10:16:34;;;;;;;;;;;;;;;-144.99;63.53;52138.28;5064078;28;19928;-67
2023/05/26 10:19:02;;;;;;;;;;;;;;;-144.99;63.51;52207.59;5063268;28;20197;-67
2023/05/26 10:21:33;;;;;;;;;;;;;;;-144.99;63.70;52223.88;5068013;28;20019;-68
2023/05/26 10:24:03;;;;;;;;;;;;;;;-144.99;63.87;52240.19;5066097;28;19931;-67
2023/05/26 10:26:34;;;;;;;;;;;;;;;-144.99;64.26;52199.44;5062902;28;19928;-67
2023/05/26 10:29:03;;;;;;;;;;;;;;;-144.99;64.26;52227.97;5063682;28;19935;-67
2023/05/26 10:31:31;;;;;;;;;;;;;;;-144.99;64.56;52215.75;5065355;28;20013;-66
2023/05/26 10:33:57;;;;;;;;;;;;;;;-144.99;64.42;52219.81;5066050;28;19951;-68
2023/05/26 10:36:28;;;;;;;;;;;;;;;-144.99;64.25;52248.34;5063553;28;20227;-67
2023/05/26 10:38:56;;;;;;;;;;;;;;;-144.99;64.76;52240.19;5063239;28;20406;-66
2023/05/26 10:41:32;;;;;;;;;;;;;;;-144.99;64.86;52232.03;5059811;28;19928;-67
2023/05/26 10:44:00;;;;;;;;;;;;;;;-144.99;64.51;52240.19;5065400;28;19950;-68
2023/05/26 10:46:36;;;;;;;;;;;;;;;-144.99;65.05;52252.44;5063040;28;19935;-67
2023/05/26 10:49:03;;;;;;;;;;;;;;;-144.99;65.44;52225.94;5063122;28;19928;-67
2023/05/26 10:51:32;;;;;;;;;;;;;;;-144.99;65.47;52289.13;5065171;28;19947;-68
2023/05/26 10:53:59;;;;;;;;;;;;;;;-144.99;65.80;52268.72;5062352;28;20332;-66
2023/05/26 10:56:26;;;;;;;;;;;;;;;-144.99;66.07;52227.97;5058202;28;19925;-67
2023/05/26 10:58:57;;;;;;;;;;;;;;;-144.99;66.20;52293.19;5069836;28;19929;-67
2023/05/26 11:01:28;;;;;;;;;;;;;;;-144.99;66.17;52268.72;5077187;28;19925;-67
2023/05/26 11:03:57;;;;;;;;;;;;;;;-144.99;66.13;52211.66;5069739;28;19934;-67
2023/05/26 11:06:35;;;;;;;;;;;;;;;-144.99;66.17;52283.00;5061107;28;19928;-67
2023/05/26 11:09:07;;;;;;;;;;;;;;;-144.99;66.38;52252.44;5064583;28;20303;-66
2023/05/26 11:11:38;;;;;;;;;;;;;;;-144.99;66.66;52291.16;5069097;28;19940;-66
2023/05/26 11:14:09;;;;;;;;;;;;;;;-144.99;67.65;52285.03;5066291;28;19951;-67
2023/05/26 11:16:36;;;;;;;;;;;;;;;-144.99;67.63;52283.00;5066104;28;20027;-66
2023/05/26 11:19:04;;;;;;;;;;;;;;;-144.99;67.44;52297.25;5064890;28;19952;-67
2023/05/26 11:21:31;;;;;;;;;;;;;;;-144.99;68.48;52213.69;5064599;28;19928;-66
2023/05/26 11:24:00;;;;;;;;;;;;;;;-144.99;67.44;52278.91;5060559;28;19933;-66
2023/05/26 11:26:27;;;;;;;;;;;;;;;-144.99;67.66;52248.34;5062772;28;20089;-68
2023/05/26 11:28:55;;;;;;;;;;;;;;;-144.99;67.39;52278.91;5064845;28;19929;-67
2023/05/26 11:31:22;;;;;;;;;;;;;;;-144.99;67.61;52285.03;5064518;28;20397;-66
2023/05/26 11:33:49;;;;;;;;;;;;;;;-144.99;67.55;52236.13;5064139;28;20381;-66
2023/05/26 11:36:17;;;;;;;;;;;;;;;-144.99;67.25;52232.03;5063685;28;19932;-67
2023/05/26 11:38:44;;;;;;;;;;;;;;;-144.99;67.00;52301.34;5058482;28;19924;-66
2023/05/26 11:41:13;;;;;;;;;;;;;;;-144.99;66.99;52248.34;5070708;28;19928;-67
2023/05/26 11:43:40;;;;;;;;;;;;;;;-144.99;66.91;52272.81;5070592;28;20338;-66
2023/05/26 11:46:08;;;;;;;;;;;;;;;-144.99;67.09;52232.03;5067540;28;20658;-67
2023/05/26 11:48:36;;;;;;;;;;;;;;;-144.99;66.90;52230.00;5063373;28;20387;-66
2023/05/26 11:51:09;;;;;;;;;;;;;;;-144.99;67.03;52248.34;5068701;28;19935;-67
2023/05/26 11:53:36;;;;;;;;;;;;;;;-144.99;66.72;52236.13;5067312;28;19952;-66
2023/05/26 11:56:07;;;;;;;;;;;;;;;-144.99;67.14;52252.44;5064364;28;19935;-66
2023/05/26 11:58:36;;;;;;;;;;;;;;;-144.99;67.57;52262.63;5065071;28;20352;-67
2023/05/26 12:01:03;;;;;;;;;;;;;;;-144.99;67.21;52250.38;5068410;28;19929;-67
2023/05/26 12:03:33;;;;;;;;;;;;;;;-144.99;67.14;52223.88;5066276;28;19994;-66
2023/05/26 12:06:11;;;;;;;;;;;;;;;-144.99;67.21;52234.09;5066736;28;20009;-66
2023/05/26 12:08:45;;;;;;;;;;;;;;;-144.99;66.89;52234.09;5067226;28;19928;-65
2023/05/26 12:11:18;;;;;;;;;;;;;;;-144.99;66.86;52258.53;5064782;28;19938;-66
2023/05/26 12:13:47;;;;;;;;;;;;;;;-144.99;66.68;52203.50;5063379;28;19935;-66
2023/05/26 12:16:21;;;;;;;;;;;;;;;-144.99;66.71;52268.72;5066302;28;19932;-66
2023/05/26 12:18:47;;;;;;;;;;;;;;;-144.99;66.74;52244.28;5067452;28;19935;-66
2023/05/26 12:21:14;;;;;;;;;;;;;;;-144.99;66.85;52256.50;5068127;28;19935;-65
2023/05/26 12:23:41;;;;;;;;;;;;;;;-144.99;67.08;52223.88;5076722;28;19928;-66
2023/05/26 12:26:14;;;;;;;;;;;;;;;-144.99;66.68;52260.56;5065352;28;19928;-65
2023/05/26 12:28:40;;;;;;;;;;;;;;;-144.99;66.26;52246.31;5060100;28;20381;-66